createdAt,value
2019-05-14T00:03:11.283Z,100206.60
2019-05-14T00:07:22.150Z,100183.48
2019-05-14T00:11:31.210Z,100188.32
2019-05-14T00:15:41.328Z,100177.91
2019-05-14T00:20:02.711Z,100138.14
2019-05-14T00:23:58.856Z,100121.23
2019-05-14T00:28:06.953Z,100107.30
2019-05-14T00:32:14.456Z,100093.07
2019-05-14T00:36:22.316Z,100097.95
2019-05-14T00:40:31.431Z,100114.56
2019-05-14T00:44:51.535Z,100118.28
2019-05-14T00:48:48.805Z,100120.13
2019-05-14T00:52:57.894Z,100162.77
2019-05-14T00:57:05.768Z,100173.43
2019-05-14T01:01:13.839Z,100168.04
2019-05-14T01:05:22.025Z,100175.39
2019-05-14T01:09:31.479Z,100184.42
2019-05-14T01:13:38.782Z,100179.73
2019-05-14T01:17:46.765Z,100187.25
2019-05-14T01:21:54.155Z,100184.59
2019-05-14T01:26:02.609Z,100191.95
2019-05-14T01:30:12.431Z,100200.56
2019-05-14T01:34:21.614Z,100182.16
2019-05-14T01:38:31.445Z,100190.85
2019-05-14T01:42:38.391Z,100184.00
2019-05-14T01:46:45.980Z,100167.73
2019-05-14T01:50:53.866Z,100144.47
2019-05-14T01:55:02.167Z,100114.16
2019-05-14T01:59:12.080Z,100120.38
2019-05-14T02:03:21.456Z,100132.62
2019-05-14T02:07:28.727Z,100155.20
2019-05-14T02:11:37.396Z,100164.16
2019-05-14T02:15:45.833Z,100148.98
2019-05-14T02:19:54.034Z,100146.14
2019-05-14T02:24:02.207Z,100152.71
2019-05-14T02:28:11.542Z,100162.30
2019-05-14T02:32:21.080Z,100171.86
2019-05-14T02:36:30.972Z,100179.48
2019-05-14T02:40:40.410Z,100170.95
2019-05-14T02:44:49.043Z,100168.83
2019-05-14T02:48:59.454Z,100164.16
2019-05-14T02:53:06.431Z,100150.44
2019-05-14T02:57:14.265Z,100143.72
2019-05-14T03:01:22.085Z,100145.42
2019-05-14T03:05:30.431Z,100131.67
2019-05-14T03:09:40.327Z,100125.67
2019-05-14T03:13:49.478Z,100141.06
2019-05-14T03:17:59.953Z,100164.28
2019-05-14T03:22:10.067Z,100167.78
2019-05-14T03:26:19.906Z,100178.59
2019-05-14T03:30:32.141Z,100193.32
2019-05-14T03:34:42.066Z,100215.59
2019-05-14T03:38:46.414Z,100225.49
2019-05-14T03:42:54.010Z,100257.11
2019-05-14T03:47:05.278Z,100275.45
2019-05-14T03:51:11.284Z,100267.97
2019-05-14T03:55:20.242Z,100279.02
2019-05-14T03:59:29.297Z,100293.08
2019-05-14T04:03:39.832Z,100294.37
2019-05-14T04:07:50.317Z,100294.39
2019-05-14T04:12:00.060Z,100278.96
2019-05-14T04:16:09.457Z,100259.88
2019-05-14T04:20:19.717Z,100327.95
2019-05-14T04:24:29.824Z,100276.92
2019-05-14T04:28:39.430Z,100285.47
2019-05-14T04:32:50.752Z,100245.27
2019-05-14T04:36:59.504Z,100189.81
2019-05-14T04:41:10.359Z,100148.59
2019-05-14T04:45:19.671Z,100125.63
2019-05-14T04:49:29.108Z,100100.66
2019-05-14T04:53:39.384Z,100098.64
2019-05-14T04:57:49.818Z,100117.05
2019-05-14T05:02:00.123Z,100134.93
2019-05-14T05:06:09.920Z,100131.02
2019-05-14T05:10:19.287Z,100128.73
2019-05-14T05:14:26.403Z,100123.11
2019-05-14T05:18:34.220Z,100118.72
2019-05-14T05:22:41.738Z,100137.48
2019-05-14T05:26:49.522Z,100167.73
2019-05-14T05:30:58.513Z,100197.05
2019-05-14T05:35:09.251Z,100197.06
2019-05-14T05:39:16.103Z,100179.93
2019-05-14T05:43:23.928Z,100173.52
2019-05-14T05:47:31.409Z,100181.80
2019-05-14T05:51:39.419Z,100191.58
2019-05-14T05:55:48.434Z,100180.54
2019-05-14T05:59:58.696Z,100162.83
2019-05-14T06:04:08.709Z,100160.06
2019-05-14T06:08:18.801Z,100156.66
2019-05-14T06:12:26.307Z,100142.15
2019-05-14T06:16:34.512Z,100139.07
2019-05-14T06:20:42.430Z,100168.06
2019-05-14T06:24:50.019Z,100168.06
2019-05-14T06:28:59.729Z,100177.12
2019-05-14T06:33:09.257Z,100164.89
2019-05-14T06:37:18.888Z,100176.01
2019-05-14T06:41:28.196Z,100179.83
2019-05-14T06:45:35.207Z,100179.83
2019-05-14T06:49:43.035Z,100191.86
2019-05-14T06:53:50.932Z,100207.34
2019-05-14T06:57:58.829Z,100215.91
2019-05-14T07:02:08.755Z,100219.99
2019-05-14T07:06:18.676Z,100215.85
2019-05-14T07:10:28.759Z,100201.17
2019-05-14T07:14:36.042Z,100199.02
2019-05-14T07:18:49.249Z,100199.02
2019-05-14T07:22:54.112Z,100198.12
2019-05-14T07:27:01.905Z,100203.98
2019-05-14T07:31:10.425Z,100208.29
2019-05-14T07:35:18.518Z,100210.47
2019-05-14T07:39:28.889Z,100184.19
2019-05-14T07:43:35.584Z,100185.86
2019-05-14T07:47:43.615Z,100172.98
2019-05-14T07:51:51.997Z,100168.38
2019-05-14T07:56:00.053Z,100162.62
2019-05-14T08:00:08.567Z,100175.55
2019-05-14T08:04:19.755Z,100175.55
2019-05-14T08:08:25.809Z,100181.62
2019-05-14T08:12:33.756Z,100177.72
2019-05-14T08:16:41.163Z,100191.53
2019-05-14T08:20:49.041Z,100197.49
2019-05-14T08:24:58.081Z,100202.55
2019-05-14T08:29:06.036Z,100192.66
2019-05-14T08:33:15.068Z,100169.73
2019-05-14T08:37:22.460Z,100161.36
2019-05-14T08:41:30.026Z,100164.52
2019-05-14T08:45:38.956Z,100169.89
2019-05-14T08:49:50.706Z,100145.08
2019-05-14T08:53:59.239Z,100133.09
2019-05-14T08:58:13.317Z,100134.53
2019-05-14T09:02:16.624Z,100128.13
2019-05-14T09:06:24.810Z,100110.33
2019-05-14T09:10:32.340Z,100107.33
2019-05-14T09:14:40.225Z,100096.64
2019-05-14T09:18:49.076Z,100092.94
2019-05-14T09:22:59.178Z,100103.00
2019-05-14T09:27:08.488Z,100111.56
2019-05-14T09:31:16.850Z,100115.62
2019-05-14T09:35:25.689Z,100129.11
2019-05-14T09:39:33.462Z,100176.45
2019-05-14T09:43:41.230Z,100176.45
2019-05-14T09:47:50.720Z,100214.16
2019-05-14T09:51:58.691Z,100262.59
2019-05-14T09:56:09.063Z,100250.72
2019-05-14T10:00:19.218Z,100218.94
2019-05-14T10:04:26.605Z,100200.44
2019-05-14T10:08:34.195Z,100184.38
2019-05-14T10:12:52.710Z,100141.39
2019-05-14T10:16:51.605Z,100113.36
2019-05-14T10:20:59.292Z,100114.93
2019-05-14T10:25:09.063Z,100117.86
2019-05-14T10:29:18.976Z,100112.38
2019-05-14T10:33:28.734Z,100123.24
2019-05-14T10:37:39.785Z,100122.68
2019-05-14T10:41:46.045Z,100126.25
2019-05-14T10:45:54.019Z,100137.02
2019-05-14T10:50:02.022Z,100161.75
2019-05-14T10:54:20.988Z,100142.22
2019-05-14T10:58:20.171Z,100137.86
2019-05-14T11:02:29.204Z,100129.23
2019-05-14T11:06:38.841Z,100145.38
2019-05-14T11:10:49.465Z,100145.37
2019-05-14T11:14:56.720Z,100152.22
2019-05-14T11:19:04.650Z,100115.08
2019-05-14T11:23:12.355Z,100111.22
2019-05-14T11:27:20.286Z,100093.94
2019-05-14T11:31:29.919Z,100072.80
2019-05-14T11:35:39.400Z,100084.81
2019-05-14T11:39:48.703Z,100084.99
2019-05-14T11:43:59.233Z,100096.28
2019-05-14T11:48:06.292Z,100079.80
2019-05-14T11:52:14.418Z,100058.94
2019-05-14T11:56:22.014Z,100037.83
2019-05-14T12:00:30.820Z,100030.08
2019-05-14T12:04:39.264Z,100013.27
2019-05-14T12:08:46.712Z,100011.80
2019-05-14T12:12:54.781Z,99999.89
2019-05-14T12:17:02.508Z,99976.02
2019-05-14T12:21:12.489Z,99968.98
2019-05-14T12:25:20.203Z,100006.27
2019-05-14T12:29:29.209Z,100031.78
2019-05-14T12:33:39.455Z,100030.81
2019-05-14T12:37:46.761Z,100025.95
2019-05-14T12:41:54.374Z,100020.51
2019-05-14T12:46:03.004Z,100017.85
2019-05-14T12:50:11.224Z,99985.93
2019-05-14T12:54:19.943Z,99973.75
2019-05-14T12:58:28.563Z,99968.00
2019-05-14T13:02:36.342Z,99949.57
2019-05-14T13:06:44.407Z,99964.68
2019-05-14T13:10:52.198Z,99971.33
2019-05-14T13:15:01.492Z,99983.09
2019-05-14T13:19:09.436Z,99991.45
2019-05-14T13:23:18.376Z,99986.28
2019-05-14T13:27:28.601Z,99969.13
2019-05-14T13:31:35.522Z,99962.56
2019-05-14T13:35:43.574Z,99976.20
2019-05-14T13:39:53.103Z,99958.61
2019-05-14T13:44:17.298Z,99946.76
2019-05-14T13:48:10.272Z,99960.47
2019-05-14T13:52:18.861Z,99968.28
2019-05-14T13:56:28.352Z,99962.70
2019-05-14T14:00:36.675Z,99967.89
2019-05-14T14:04:44.483Z,99982.09
2019-05-14T14:08:52.412Z,99952.02
2019-05-14T14:13:00.936Z,99962.31
2019-05-14T14:17:08.853Z,99959.11
2019-05-14T14:21:19.700Z,99956.55
2019-05-14T14:25:29.557Z,99974.97
2019-05-14T14:29:39.340Z,99998.80
2019-05-14T14:33:48.767Z,99996.34
2019-05-14T14:37:59.179Z,99996.34
2019-05-14T14:42:06.244Z,100015.52
2019-05-14T14:46:14.518Z,100010.92
2019-05-14T14:50:22.321Z,100012.13
2019-05-14T14:54:29.801Z,100011.86
2019-05-14T14:58:39.158Z,99996.19
2019-05-14T15:02:49.552Z,99974.74
2019-05-14T15:06:59.574Z,99959.77
2019-05-14T15:11:08.574Z,99962.44
2019-05-14T15:15:18.478Z,99965.56
2019-05-14T15:19:25.149Z,99950.39
2019-05-14T15:23:33.191Z,99932.51
2019-05-14T15:27:40.679Z,99920.02
2019-05-14T15:31:48.985Z,99920.02
2019-05-14T15:35:58.237Z,99908.55
2019-05-14T15:40:07.800Z,99921.78
2019-05-14T15:44:15.675Z,99931.95
2019-05-14T15:48:23.069Z,99968.14
2019-05-14T15:52:31.146Z,100008.05
2019-05-14T15:56:39.561Z,100027.30
2019-05-14T16:00:48.375Z,100011.58
2019-05-14T16:04:59.000Z,100013.39
2019-05-14T16:09:06.859Z,100017.86
2019-05-14T16:13:14.763Z,99990.31
2019-05-14T16:17:24.653Z,100005.09
2019-05-14T16:21:31.971Z,100009.36
2019-05-14T16:25:40.235Z,99964.14
2019-05-14T16:29:48.265Z,99969.36
2019-05-14T16:33:56.020Z,99944.45
2019-05-14T16:38:04.599Z,99938.42
2019-05-14T16:42:12.309Z,99933.74
2019-05-14T16:46:20.213Z,99941.88
2019-05-14T16:50:28.642Z,99943.80
2019-05-14T16:54:39.255Z,99932.36
2019-05-14T16:58:46.540Z,99899.38
2019-05-14T17:02:54.190Z,99898.17
2019-05-14T17:07:01.702Z,99927.42
2019-05-14T17:11:09.695Z,99930.30
2019-05-14T17:15:18.171Z,99929.03
2019-05-14T17:19:25.910Z,99924.65
2019-05-14T17:23:34.417Z,99919.13
2019-05-14T17:27:42.204Z,99877.82
2019-05-14T17:31:49.783Z,99868.25
2019-05-14T17:35:58.636Z,99876.16
2019-05-14T17:40:09.336Z,99854.33
2019-05-14T17:44:17.548Z,99844.09
2019-05-14T17:48:25.454Z,99846.72
2019-05-14T17:52:33.475Z,99852.47
2019-05-14T17:56:41.167Z,99836.13
2019-05-14T18:00:49.063Z,99823.30
2019-05-14T18:04:59.292Z,99808.87
2019-05-14T18:09:09.138Z,99811.22
2019-05-14T18:13:18.189Z,99806.17
2019-05-14T18:17:26.192Z,99795.77
2019-05-14T18:21:33.877Z,99781.00
2019-05-14T18:25:41.870Z,99787.92
2019-05-14T18:29:50.690Z,99809.93
2019-05-14T18:33:58.914Z,99826.85
2019-05-14T18:38:08.286Z,99861.86
2019-05-14T18:42:15.979Z,99885.54
2019-05-14T18:46:23.951Z,99891.23
2019-05-14T18:50:31.359Z,99879.56
2019-05-14T18:54:39.085Z,99873.96
2019-05-14T18:58:48.599Z,99845.34
2019-05-14T19:02:55.990Z,99854.86
2019-05-14T19:07:04.046Z,99857.41
2019-05-14T19:11:11.543Z,99855.74
2019-05-14T19:15:19.348Z,99831.52
2019-05-14T19:19:29.210Z,99844.30
2019-05-14T19:23:38.256Z,99865.12
2019-05-14T19:27:45.596Z,99869.95
2019-05-14T19:31:53.084Z,99854.34
2019-05-14T19:36:01.082Z,99856.70
2019-05-14T19:40:09.594Z,99851.31
2019-05-14T19:44:19.151Z,99875.59
2019-05-14T19:48:32.089Z,99879.94
2019-05-14T19:52:39.001Z,99882.75
2019-05-14T19:56:55.617Z,99873.84
2019-05-14T20:00:56.254Z,99849.84
2019-05-14T20:05:05.562Z,99841.95
2019-05-14T20:09:15.263Z,99844.47
2019-05-14T20:13:23.074Z,99838.05
2019-05-14T20:17:30.985Z,99813.68
2019-05-14T20:21:39.230Z,99834.88
2019-05-14T20:25:48.149Z,99818.27
2019-05-14T20:29:57.978Z,99797.45
2019-05-14T20:34:05.728Z,99803.94
2019-05-14T20:38:14.253Z,99798.77
2019-05-14T20:42:25.979Z,99803.72
2019-05-14T20:46:35.458Z,99813.93
2019-05-14T20:50:44.380Z,99827.02
2019-05-14T20:54:54.188Z,99810.23
2019-05-14T20:59:02.098Z,99801.53
2019-05-14T21:03:09.864Z,99776.36
2019-05-14T21:07:17.628Z,99775.87
2019-05-14T21:11:25.720Z,99781.58
2019-05-14T21:15:33.341Z,99778.69
2019-05-14T21:19:41.873Z,99792.75
2019-05-14T21:23:49.567Z,99796.37
2019-05-14T21:27:58.764Z,99789.36
2019-05-14T21:32:08.219Z,99790.11
2019-05-14T21:36:19.489Z,99761.47
2019-05-14T21:40:31.984Z,99765.64
2019-05-14T21:44:39.191Z,99740.86
2019-05-14T21:48:47.802Z,99730.02
2019-05-14T21:52:59.442Z,99726.71
2019-05-14T21:57:11.317Z,99700.02
2019-05-14T22:01:18.747Z,99682.88
2019-05-14T22:05:28.531Z,99684.24
2019-05-14T22:09:38.984Z,99670.45
2019-05-14T22:13:46.632Z,99666.95
2019-05-14T22:17:54.753Z,99673.05
2019-05-14T22:22:02.457Z,99645.67
2019-05-14T22:26:10.779Z,99646.45
2019-05-14T22:30:19.130Z,99642.50
2019-05-14T22:34:28.034Z,99646.23
2019-05-14T22:38:38.719Z,99657.57
2019-05-14T22:42:46.242Z,99675.90
2019-05-14T22:46:53.841Z,99666.60
2019-05-14T22:51:02.058Z,99663.63
2019-05-14T22:55:09.848Z,99665.70
2019-05-14T22:59:20.343Z,99668.77
2019-05-14T23:03:29.013Z,99650.03
2019-05-14T23:07:38.295Z,99642.81
2019-05-14T23:11:47.997Z,99640.66
2019-05-14T23:15:55.987Z,99634.83
2019-05-14T23:20:03.772Z,99639.34
2019-05-14T23:24:11.994Z,99651.80
2019-05-14T23:28:19.807Z,99638.70
2019-05-14T23:32:28.612Z,99639.89
2019-05-14T23:36:38.788Z,99623.34
2019-05-14T23:40:46.317Z,99611.31
2019-05-14T23:44:54.754Z,99622.02
2019-05-14T23:49:03.071Z,99621.53
2019-05-14T23:53:10.752Z,99633.44
2019-05-14T23:57:19.275Z,99639.63
